Time;durP1;ratioP1;P1;durP2;ratioP2;P2;SDS_P1;SDS_P2;PMS_P1;PMS_P2;Temp;Humidity;BMP_temperature;BMP_pressure;BME280_temperature;BME280_humidity;BME280_pressure;Samples;Min_cycle;Max_cycle;Signal;HPM_P1;HPM_P2
2021/03/28 00:00:17;;;;;;;13.23;6.95;;;;;;;;;;1049145;28;20016;-49
2021/03/28 00:00:55;;;;;;;11.75;6.70;;;;;;;;;;1048899;28;20099;-46
2021/03/28 00:01:32;;;;;;;16.27;8.25;;;;;;;;;;1045464;28;20013;-47
2021/03/28 00:02:05;;;;;;;10.55;4.97;;;;;;;;;;1045035;28;20446;-46
2021/03/28 00:02:51;;;;;;;11.30;5.95;;;;;;;;;;1047118;28;20466;-47
2021/03/28 00:03:32;;;;;;;13.75;5.50;;;;;;;;;;1048196;28;20035;-47
2021/03/28 00:04:05;;;;;;;8.18;3.80;;;;;;;;;;1045226;28;20013;-46
2021/03/28 00:04:41;;;;;;;10.77;4.30;;;;;;;;;;1036793;28;20006;-47
2021/03/28 00:05:32;;;;;;;8.90;3.42;;;;;;;;;;1039573;28;20097;-46
2021/03/28 00:06:14;;;;;;;8.50;3.80;;;;;;;;;;1044316;28;20013;-47
2021/03/28 00:06:44;;;;;;;9.98;3.55;;;;;;;;;;1049294;28;20016;-46
2021/03/28 00:07:15;;;;;;;10.20;3.10;;;;;;;;;;1049415;28;20432;-45
2021/03/28 00:07:48;;;;;;;5.23;2.53;;;;;;;;;;1048923;28;20008;-48
2021/03/28 00:08:23;;;;;;;8.80;2.70;;;;;;;;;;1044716;28;20582;-47
2021/03/28 00:09:11;;;;;;;8.15;2.70;;;;;;;;;;1045003;28;20029;-48
2021/03/28 00:09:46;;;;;;;7.18;3.10;;;;;;;;;;1044816;28;20009;-50
2021/03/28 00:10:24;;;;;;;8.57;2.85;;;;;;;;;;1047973;28;20062;-48
2021/03/28 00:10:54;;;;;;;9.68;2.72;;;;;;;;;;1044915;28;20099;-47
2021/03/28 00:11:25;;;;;;;6.73;2.30;;;;;;;;;;1040871;28;20017;-49
2021/03/28 00:11:57;;;;;;;7.67;2.30;;;;;;;;;;1037837;28;20093;-46
2021/03/28 00:12:27;;;;;;;5.57;2.30;;;;;;;;;;1040673;28;20018;-49
2021/03/28 00:13:02;;;;;;;7.90;2.50;;;;;;;;;;1040838;28;20029;-47
2021/03/28 00:13:32;;;;;;;6.47;2.95;;;;;;;;;;1042170;28;20009;-47
2021/03/28 00:14:02;;;;;;;6.37;2.20;;;;;;;;;;1044682;28;20029;-48
2021/03/28 00:14:38;;;;;;;6.37;2.30;;;;;;;;;;1044771;28;20020;-48
2021/03/28 00:15:08;;;;;;;7.72;2.70;;;;;;;;;;1044802;28;20080;-46
2021/03/28 00:15:40;;;;;;;7.37;2.70;;;;;;;;;;1047721;28;20382;-46
2021/03/28 00:16:10;;;;;;;6.20;2.45;;;;;;;;;;1048896;28;20157;-47
2021/03/28 00:16:44;;;;;;;7.93;2.60;;;;;;;;;;1048896;28;20043;-45
2021/03/28 00:17:20;;;;;;;6.18;2.40;;;;;;;;;;1048850;28;20067;-46
2021/03/28 00:17:52;;;;;;;5.40;2.25;;;;;;;;;;1048732;28;20013;-48
2021/03/28 00:18:23;;;;;;;7.18;2.70;;;;;;;;;;1048815;28;20377;-47
2021/03/28 00:19:05;;;;;;;9.45;3.03;;;;;;;;;;1048961;28;20012;-48
2021/03/28 00:19:36;;;;;;;4.90;2.15;;;;;;;;;;1049430;28;20484;-47
2021/03/28 00:20:15;;;;;;;7.77;2.63;;;;;;;;;;1049249;28;20103;-46
2021/03/28 00:20:45;;;;;;;9.27;2.50;;;;;;;;;;1049147;28;20024;-47
2021/03/28 00:21:17;;;;;;;8.53;2.63;;;;;;;;;;1049272;28;20023;-46
2021/03/28 00:21:51;;;;;;;9.30;2.83;;;;;;;;;;1048721;28;20527;-47
2021/03/28 00:22:29;;;;;;;6.32;2.15;;;;;;;;;;1049183;28;20013;-47
2021/03/28 00:23:01;;;;;;;7.00;2.40;;;;;;;;;;1048967;28;20099;-50
2021/03/28 00:23:31;;;;;;;7.13;2.47;;;;;;;;;;1048772;28;20199;-47
2021/03/28 00:24:12;;;;;;;7.37;3.10;;;;;;;;;;1047386;28;20519;-47
2021/03/28 00:24:48;;;;;;;6.65;2.70;;;;;;;;;;1046719;28;20009;-48
2021/03/28 00:25:38;;;;;;;8.20;2.50;;;;;;;;;;1048938;28;20015;-47
2021/03/28 00:26:19;;;;;;;8.18;2.65;;;;;;;;;;1049177;28;20120;-47
2021/03/28 00:27:06;;;;;;;8.05;2.70;;;;;;;;;;1048861;28;20529;-47
2021/03/28 00:27:40;;;;;;;8.18;2.28;;;;;;;;;;1044827;28;20020;-48
2021/03/28 00:28:40;;;;;;;7.72;2.55;;;;;;;;;;1049041;28;20035;-46
2021/03/28 00:29:22;;;;;;;7.05;2.47;;;;;;;;;;1048613;28;20012;-47
2021/03/28 00:30:03;;;;;;;8.60;2.42;;;;;;;;;;1051823;28;20105;-48
2021/03/28 00:30:38;;;;;;;8.52;2.33;;;;;;;;;;1049003;28;20021;-46
2021/03/28 00:31:12;;;;;;;5.60;2.67;;;;;;;;;;1048518;28;20706;-47
2021/03/28 00:32:02;;;;;;;8.00;2.80;;;;;;;;;;1048907;28;20453;-47
2021/03/28 00:32:46;;;;;;;7.20;2.25;;;;;;;;;;1048794;28;20154;-46
2021/03/28 00:33:16;;;;;;;7.85;2.53;;;;;;;;;;1048901;28;20044;-51
2021/03/28 00:33:56;;;;;;;7.23;2.27;;;;;;;;;;1048984;28;20092;-47
2021/03/28 00:34:30;;;;;;;5.78;2.42;;;;;;;;;;1047856;28;20009;-46
2021/03/28 00:35:04;;;;;;;7.70;2.63;;;;;;;;;;1044470;28;20470;-48
2021/03/28 00:35:48;;;;;;;8.55;2.58;;;;;;;;;;1040526;28;20020;-46
2021/03/28 00:36:19;;;;;;;8.30;2.45;;;;;;;;;;1039641;28;20010;-47
2021/03/28 00:36:52;;;;;;;6.35;2.30;;;;;;;;;;1039035;28;20097;-47
2021/03/28 00:37:25;;;;;;;8.40;2.20;;;;;;;;;;1043071;28;20093;-47
2021/03/28 00:38:21;;;;;;;9.27;2.47;;;;;;;;;;1040883;28;20475;-46
2021/03/28 00:38:52;;;;;;;8.65;2.70;;;;;;;;;;1048539;28;20386;-48
2021/03/28 00:39:31;;;;;;;7.55;2.65;;;;;;;;;;1044611;28;20009;-49
2021/03/28 00:40:21;;;;;;;7.80;2.67;;;;;;;;;;1049098;28;20382;-46
2021/03/28 00:41:06;;;;;;;7.30;2.58;;;;;;;;;;1044606;28;20021;-48
2021/03/28 00:41:38;;;;;;;9.52;2.55;;;;;;;;;;1048724;28;20090;-47
2021/03/28 00:42:29;;;;;;;8.05;2.67;;;;;;;;;;1048542;28;20024;-46
2021/03/28 00:42:59;;;;;;;;;;;;;;;;;;1049588;28;20032;-46
2021/03/28 00:43:29;;;;;;;6.43;2.70;;;;;;;;;;1048842;28;19999;-47
2021/03/28 00:44:05;;;;;;;10.90;2.60;;;;;;;;;;1048726;28;20028;-46
2021/03/28 00:44:56;;;;;;;9.60;2.60;;;;;;;;;;1048424;28;20038;-47
2021/03/28 00:45:26;;;;;;;;;;;;;;;;;;1049486;28;20493;-47
2021/03/28 00:45:56;;;;;;;7.73;2.47;;;;;;;;;;1049159;28;19916;-47
2021/03/28 00:46:39;;;;;;;12.80;2.93;;;;;;;;;;1049280;28;20016;-48
2021/03/28 00:47:11;;;;;;;6.80;2.47;;;;;;;;;;1049140;28;20096;-47
2021/03/28 00:47:42;;;;;;;8.57;2.47;;;;;;;;;;1049179;28;20027;-46
2021/03/28 00:48:14;;;;;;;5.70;2.30;;;;;;;;;;1048578;28;20414;-48
2021/03/28 00:48:48;;;;;;;7.93;2.60;;;;;;;;;;1048796;28;20035;-46
2021/03/28 00:49:31;;;;;;;7.00;2.60;;;;;;;;;;1049016;28;20023;-46
2021/03/28 00:50:24;;;;;;;10.57;2.70;;;;;;;;;;1049105;28;20017;-48
2021/03/28 00:50:55;;;;;;;6.65;2.80;;;;;;;;;;1045990;28;20104;-51
2021/03/28 00:51:25;;;;;;;5.53;2.27;;;;;;;;;;1048941;28;20017;-49
2021/03/28 00:52:02;;;;;;;7.03;2.53;;;;;;;;;;1048742;28;20100;-48
2021/03/28 00:52:33;;;;;;;9.90;3.00;;;;;;;;;;1045413;28;20009;-50
2021/03/28 00:53:05;;;;;;;10.68;2.80;;;;;;;;;;1044413;28;20037;-49
2021/03/28 00:53:55;;;;;;;10.05;2.92;;;;;;;;;;1044549;28;20013;-47
2021/03/28 00:54:25;;;;;;;;;;;;;;;;;;1047871;28;20028;-50
2021/03/28 00:55:16;;;;;;;10.33;2.63;;;;;;;;;;1048853;28;19901;-48
2021/03/28 00:55:46;;;;;;;;;;;;;;;;;;1049571;28;20145;-49
2021/03/28 00:56:21;;;;;;;7.07;2.40;;;;;;;;;;1048986;28;19901;-48
2021/03/28 00:56:52;;;;;;;6.75;2.28;;;;;;;;;;1048927;28;20062;-49
2021/03/28 00:57:23;;;;;;;6.77;2.57;;;;;;;;;;1048748;28;20017;-50
2021/03/28 00:58:03;;;;;;;7.47;2.70;;;;;;;;;;1048633;28;20048;-50
2021/03/28 00:58:44;;;;;;;10.68;2.92;;;;;;;;;;1044737;28;20041;-49
2021/03/28 00:59:22;;;;;;;7.00;2.67;;;;;;;;;;1044804;28;20433;-50
2021/03/28 00:59:53;;;;;;;7.45;2.70;;;;;;;;;;1040099;28;20018;-49
2021/03/28 01:00:35;;;;;;;6.60;2.38;;;;;;;;;;1041331;28;20018;-48
2021/03/28 01:01:21;;;;;;;7.47;2.88;;;;;;;;;;1044364;28;20370;-48
2021/03/28 01:01:56;;;;;;;9.23;2.88;;;;;;;;;;1044507;28;20490;-49
2021/03/28 01:02:28;;;;;;;8.18;2.83;;;;;;;;;;1049082;28;20116;-52
2021/03/28 01:03:08;;;;;;;8.80;2.72;;;;;;;;;;1045048;28;20013;-52
2021/03/28 01:04:07;;;;;;;8.35;3.05;;;;;;;;;;1043041;28;20060;-50
2021/03/28 01:04:56;;;;;;;7.20;2.80;;;;;;;;;;1041660;28;20006;-49
2021/03/28 01:05:32;;;;;;;10.05;2.78;;;;;;;;;;1047589;28;20017;-48
2021/03/28 01:06:13;;;;;;;8.68;2.90;;;;;;;;;;1048948;28;20064;-48
2021/03/28 01:06:45;;;;;;;6.96;2.74;;;;;;;;;;1049312;28;20375;-48
2021/03/28 01:07:17;;;;;;;8.55;2.95;;;;;;;;;;1049430;28;20020;-50
2021/03/28 01:07:57;;;;;;;10.00;2.83;;;;;;;;;;1048951;28;20016;-50
2021/03/28 01:08:33;;;;;;;4.20;2.30;;;;;;;;;;1049107;28;20008;-47
2021/03/28 01:09:21;;;;;;;7.82;2.80;;;;;;;;;;1048895;28;20520;-50
2021/03/28 01:10:10;;;;;;;8.15;2.47;;;;;;;;;;1049263;28;20027;-47
2021/03/28 01:10:43;;;;;;;6.05;2.60;;;;;;;;;;1049002;28;20005;-47
2021/03/28 01:11:19;;;;;;;6.18;2.58;;;;;;;;;;1048992;28;20008;-48
2021/03/28 01:12:02;;;;;;;11.35;3.47;;;;;;;;;;1049154;28;20461;-48
2021/03/28 01:12:32;;;;;;;7.40;2.70;;;;;;;;;;1049204;28;20004;-48
2021/03/28 01:13:21;;;;;;;9.03;3.40;;;;;;;;;;1048950;28;20016;-51
2021/03/28 01:13:53;;;;;;;7.57;2.80;;;;;;;;;;1049279;28;20012;-48
2021/03/28 01:14:43;;;;;;;7.97;2.53;;;;;;;;;;1049112;28;20108;-47
2021/03/28 01:15:20;;;;;;;;;;;;;;;;;;1049256;28;20036;-47
2021/03/28 01:16:16;;;;;;;9.35;3.00;;;;;;;;;;1048981;28;19904;-47
2021/03/28 01:16:58;;;;;;;10.82;3.08;;;;;;;;;;1048882;28;20017;-46
2021/03/28 01:17:54;;;;;;;6.60;2.80;;;;;;;;;;1044775;28;20124;-47
2021/03/28 01:18:43;;;;;;;6.63;2.88;;;;;;;;;;1044635;28;20112;-48
2021/03/28 01:19:15;;;;;;;7.38;2.75;;;;;;;;;;1044227;28;20490;-47
2021/03/28 01:20:04;;;;;;;7.15;2.90;;;;;;;;;;1048532;28;20372;-50
2021/03/28 01:20:34;;;;;;;11.93;3.15;;;;;;;;;;1048549;28;20012;-47
2021/03/28 01:21:08;;;;;;;5.67;2.57;;;;;;;;;;1049238;28;20058;-48
2021/03/28 01:21:44;;;;;;;9.65;3.17;;;;;;;;;;1049199;28;20008;-46
2021/03/28 01:22:18;;;;;;;10.07;3.17;;;;;;;;;;1048752;28;20090;-46
2021/03/28 01:22:55;;;;;;;7.90;3.00;;;;;;;;;;1044565;28;20073;-47
2021/03/28 01:23:36;;;;;;;5.40;2.53;;;;;;;;;;1044447;28;20024;-47
2021/03/28 01:24:06;;;;;;;;;;;;;;;;;;1045298;28;20005;-48
2021/03/28 01:24:51;;;;;;;7.23;2.63;;;;;;;;;;1047186;28;19909;-47
2021/03/28 01:25:36;;;;;;;6.50;2.40;;;;;;;;;;1049028;28;20020;-47
2021/03/28 01:26:09;;;;;;;6.88;2.92;;;;;;;;;;1048774;28;20024;-47
2021/03/28 01:26:58;;;;;;;6.82;2.55;;;;;;;;;;1048681;28;20108;-49
2021/03/28 01:27:35;;;;;;;6.78;2.75;;;;;;;;;;1049176;28;20013;-47
2021/03/28 01:28:25;;;;;;;7.25;2.50;;;;;;;;;;1048961;28;20126;-46
2021/03/28 01:28:56;;;;;;;;;;;;;;;;;;1049297;28;20036;-46
2021/03/28 01:29:29;;;;;;;8.10;2.73;;;;;;;;;;1049366;28;20415;-46
2021/03/28 01:30:09;;;;;;;8.02;2.92;;;;;;;;;;1049321;28;20016;-46
2021/03/28 01:30:40;;;;;;;8.45;2.60;;;;;;;;;;1049236;28;20038;-47
2021/03/28 01:31:20;;;;;;;8.07;2.60;;;;;;;;;;1049015;28;20009;-47
2021/03/28 01:31:51;;;;;;;7.93;2.90;;;;;;;;;;1048993;28;20128;-47
2021/03/28 01:32:29;;;;;;;7.20;2.80;;;;;;;;;;1049025;28;20473;-46
2021/03/28 01:33:01;;;;;;;6.35;2.50;;;;;;;;;;1047150;28;20500;-46
2021/03/28 01:33:46;;;;;;;8.30;2.63;;;;;;;;;;1048873;28;20464;-47
2021/03/28 01:34:27;;;;;;;6.43;2.60;;;;;;;;;;1048825;28;20047;-47
2021/03/28 01:34:58;;;;;;;6.18;2.67;;;;;;;;;;1044246;28;20013;-50
2021/03/28 01:35:44;;;;;;;8.00;2.60;;;;;;;;;;1044953;28;20108;-50
2021/03/28 01:36:21;;;;;;;7.28;2.53;;;;;;;;;;1044772;28;20017;-52
2021/03/28 01:37:06;;;;;;;6.45;2.47;;;;;;;;;;1050493;28;20044;-50
2021/03/28 01:37:54;;;;;;;7.63;2.60;;;;;;;;;;1053329;28;20072;-50
2021/03/28 01:38:34;;;;;;;6.10;2.50;;;;;;;;;;1053283;28;20048;-50
2021/03/28 01:39:09;;;;;;;7.28;2.85;;;;;;;;;;1044568;28;20387;-46
2021/03/28 01:39:44;;;;;;;5.75;2.83;;;;;;;;;;1044741;28;20005;-50
2021/03/28 01:40:22;;;;;;;9.05;2.72;;;;;;;;;;1040756;28;20016;-47
2021/03/28 01:40:57;;;;;;;9.32;2.88;;;;;;;;;;1045108;28;20022;-51
2021/03/28 01:41:29;;;;;;;7.10;2.47;;;;;;;;;;1049217;28;20059;-51
2021/03/28 01:42:00;;;;;;;9.05;2.80;;;;;;;;;;1046698;28;20444;-51
2021/03/28 01:42:45;;;;;;;7.22;2.70;;;;;;;;;;1044991;28;20037;-51
2021/03/28 01:43:34;;;;;;;6.75;2.72;;;;;;;;;;1044851;28;20020;-49
2021/03/28 01:44:09;;;;;;;8.93;2.92;;;;;;;;;;1048884;28;20021;-48
2021/03/28 01:44:43;;;;;;;8.15;3.25;;;;;;;;;;1048394;28;20070;-50
2021/03/28 01:45:19;;;;;;;6.20;2.70;;;;;;;;;;1048504;28;20504;-49
2021/03/28 01:45:56;;;;;;;5.75;2.72;;;;;;;;;;1048845;28;20119;-50
2021/03/28 01:46:45;;;;;;;6.97;2.55;;;;;;;;;;1048492;28;20013;-46
2021/03/28 01:47:26;;;;;;;8.35;2.75;;;;;;;;;;1049157;28;20440;-46
2021/03/28 01:48:00;;;;;;;7.05;2.97;;;;;;;;;;1049194;28;20016;-46
2021/03/28 01:48:36;;;;;;;7.88;2.80;;;;;;;;;;1049039;28;20036;-46
2021/03/28 01:49:09;;;;;;;7.07;2.65;;;;;;;;;;1049093;28;20032;-47
2021/03/28 01:50:00;;;;;;;5.88;2.70;;;;;;;;;;1050293;28;20016;-48
2021/03/28 01:50:30;;;;;;;;;;;;;;;;;;1049640;28;20051;-49
2021/03/28 01:51:04;;;;;;;7.17;2.67;;;;;;;;;;1049009;28;20348;-50
2021/03/28 01:51:41;;;;;;;10.13;2.50;;;;;;;;;;1048487;28;20020;-51
2021/03/28 01:52:29;;;;;;;5.85;2.70;;;;;;;;;;1049166;28;20481;-50
2021/03/28 01:53:07;;;;;;;9.50;2.83;;;;;;;;;;1048658;28;20021;-49
2021/03/28 01:53:40;;;;;;;7.40;2.47;;;;;;;;;;1048726;28;20488;-47
2021/03/28 01:54:29;;;;;;;8.77;3.10;;;;;;;;;;1048950;28;20207;-49
2021/03/28 01:55:08;;;;;;;5.93;2.80;;;;;;;;;;1048547;28;20542;-51
2021/03/28 01:55:57;;;;;;;8.68;2.92;;;;;;;;;;1049005;28;20016;-50
2021/03/28 01:56:29;;;;;;;7.82;2.80;;;;;;;;;;1049225;28;20028;-51
2021/03/28 01:57:18;;;;;;;8.63;2.83;;;;;;;;;;1048851;28;20099;-51
2021/03/28 01:57:52;;;;;;;8.63;3.03;;;;;;;;;;1048308;28;20419;-49
2021/03/28 01:58:37;;;;;;;8.90;3.38;;;;;;;;;;1048668;28;20015;-51
2021/03/28 01:59:26;;;;;;;8.68;4.45;;;;;;;;;;1049011;28;20012;-50
2021/03/28 02:00:02;;;;;;;12.73;4.55;;;;;;;;;;1048409;28;20013;-50
2021/03/28 02:00:51;;;;;;;9.50;4.38;;;;;;;;;;1048937;28;20020;-51
2021/03/28 02:01:36;;;;;;;11.30;4.07;;;;;;;;;;1049211;28;20012;-46
2021/03/28 02:02:25;;;;;;;10.05;3.78;;;;;;;;;;1048759;28;20008;-45
2021/03/28 02:02:58;;;;;;;6.70;3.15;;;;;;;;;;1040139;28;20006;-49
2021/03/28 02:03:44;;;;;;;8.57;3.38;;;;;;;;;;1040095;28;20021;-51
2021/03/28 02:04:14;;;;;;;6.22;2.75;;;;;;;;;;1040040;28;20140;-50
2021/03/28 02:05:07;;;;;;;6.63;2.90;;;;;;;;;;1045191;28;20059;-51
2021/03/28 02:05:46;;;;;;;8.27;3.42;;;;;;;;;;1048286;28;20087;-51
2021/03/28 02:06:25;;;;;;;12.50;3.92;;;;;;;;;;1048781;28;20009;-49
2021/03/28 02:07:05;;;;;;;9.48;3.97;;;;;;;;;;1048678;28;20011;-51
2021/03/28 02:07:53;;;;;;;9.48;3.97;;;;;;;;;;1048630;28;20035;-52
2021/03/28 02:08:25;;;;;;;8.85;3.15;;;;;;;;;;1048589;28;20031;-50
2021/03/28 02:08:57;;;;;;;10.05;3.85;;;;;;;;;;1044159;28;20338;-50
2021/03/28 02:09:47;;;;;;;9.43;3.28;;;;;;;;;;1039926;28;20102;-52
2021/03/28 02:10:17;;;;;;;;;;;;;;;;;;1036558;28;20064;-51
2021/03/28 02:10:50;;;;;;;10.17;4.10;;;;;;;;;;1041728;28;20354;-50
2021/03/28 02:11:24;;;;;;;12.20;4.60;;;;;;;;;;1047356;28;20016;-48
2021/03/28 02:12:11;;;;;;;13.25;5.10;;;;;;;;;;1048344;28;20004;-50
2021/03/28 02:12:46;;;;;;;11.80;4.35;;;;;;;;;;1048365;28;20015;-49
2021/03/28 02:13:25;;;;;;;11.43;4.55;;;;;;;;;;1048227;28;20350;-48
2021/03/28 02:14:08;;;;;;;10.35;4.15;;;;;;;;;;1048366;28;20016;-51
2021/03/28 02:14:54;;;;;;;11.43;5.20;;;;;;;;;;1048285;28;20005;-52
2021/03/28 02:15:26;;;;;;;9.50;4.65;;;;;;;;;;1048221;28;20088;-49
2021/03/28 02:15:59;;;;;;;12.80;4.45;;;;;;;;;;1048312;28;20013;-47
2021/03/28 02:16:35;;;;;;;9.30;4.18;;;;;;;;;;1048465;28;20001;-47
2021/03/28 02:17:21;;;;;;;12.40;4.63;;;;;;;;;;1048133;28;20508;-50
2021/03/28 02:18:03;;;;;;;10.50;4.35;;;;;;;;;;1048243;28;20028;-49
2021/03/28 02:18:36;;;;;;;11.15;5.72;;;;;;;;;;1048335;28;20469;-51
2021/03/28 02:19:13;;;;;;;13.90;5.13;;;;;;;;;;1044205;28;20013;-50
2021/03/28 02:19:52;;;;;;;16.65;5.95;;;;;;;;;;1047016;28;20055;-50
2021/03/28 02:20:22;;;;;;;12.18;5.28;;;;;;;;;;1048327;28;20337;-51
2021/03/28 02:21:08;;;;;;;10.83;4.90;;;;;;;;;;1048291;28;20008;-50
2021/03/28 02:21:43;;;;;;;12.18;4.95;;;;;;;;;;1048228;28;20011;-51
2021/03/28 02:22:15;;;;;;;9.35;4.68;;;;;;;;;;1048508;28;20004;-50
2021/03/28 02:22:48;;;;;;;10.80;4.35;;;;;;;;;;1048449;28;20004;-51
2021/03/28 02:23:30;;;;;;;11.50;5.15;;;;;;;;;;1048652;28;20009;-47
2021/03/28 02:24:12;;;;;;;15.85;5.18;;;;;;;;;;1048400;28;20009;-45
2021/03/28 02:24:42;;;;;;;11.07;4.55;;;;;;;;;;1048591;28;20092;-46
2021/03/28 02:25:17;;;;;;;9.00;4.40;;;;;;;;;;1048625;28;20028;-48
2021/03/28 02:25:58;;;;;;;10.23;4.47;;;;;;;;;;1048386;28;20013;-47
2021/03/28 02:26:45;;;;;;;12.27;5.22;;;;;;;;;;1048103;28;20051;-53
2021/03/28 02:27:20;;;;;;;9.35;4.55;;;;;;;;;;1048297;28;20508;-52
2021/03/28 02:28:08;;;;;;;12.88;5.30;;;;;;;;;;1048078;28;20047;-47
2021/03/28 02:28:47;;;;;;;13.93;5.95;;;;;;;;;;1048113;28;20017;-46
2021/03/28 02:29:28;;;;;;;12.98;5.10;;;;;;;;;;1044038;28;20008;-46
2021/03/28 02:30:11;;;;;;;10.35;4.55;;;;;;;;;;1044120;28;20528;-46
2021/03/28 02:30:41;;;;;;;12.25;4.97;;;;;;;;;;1048082;28;20011;-46
2021/03/28 02:31:14;;;;;;;10.47;4.77;;;;;;;;;;1051414;28;20016;-47
2021/03/28 02:31:44;;;;;;;11.77;4.90;;;;;;;;;;1050535;28;20004;-48
2021/03/28 02:32:33;;;;;;;8.50;3.50;;;;;;;;;;1048675;28;20095;-46
2021/03/28 02:33:22;;;;;;;9.57;3.33;;;;;;;;;;1048484;28;20008;-47
2021/03/28 02:33:55;;;;;;;10.70;3.28;;;;;;;;;;1048589;28;20005;-49
2021/03/28 02:34:26;;;;;;;9.13;3.80;;;;;;;;;;1048176;28;20095;-48
2021/03/28 02:35:02;;;;;;;6.77;3.10;;;;;;;;;;1043895;28;20013;-51
2021/03/28 02:35:38;;;;;;;7.53;3.08;;;;;;;;;;1039951;28;20006;-52
2021/03/28 02:36:16;;;;;;;9.27;3.53;;;;;;;;;;1041565;28;20422;-48
2021/03/28 02:36:56;;;;;;;8.80;3.67;;;;;;;;;;1042556;28;20006;-50
2021/03/28 02:37:38;;;;;;;8.07;3.20;;;;;;;;;;1039976;28;20096;-51
2021/03/28 02:38:12;;;;;;;7.20;2.70;;;;;;;;;;1040027;28;20026;-51
2021/03/28 02:39:01;;;;;;;6.50;2.70;;;;;;;;;;1043646;28;20092;-51
2021/03/28 02:39:45;;;;;;;9.15;2.80;;;;;;;;;;1049391;28;20038;-47
2021/03/28 02:40:33;;;;;;;7.20;2.90;;;;;;;;;;1049125;28;20381;-48
2021/03/28 02:41:08;;;;;;;8.63;2.97;;;;;;;;;;1049174;28;20412;-48
2021/03/28 02:41:59;;;;;;;7.63;2.55;;;;;;;;;;1049146;28;20066;-49
2021/03/28 02:42:29;;;;;;;;;;;;;;;;;;1054194;28;20047;-47
2021/03/28 02:43:18;;;;;;;7.13;2.60;;;;;;;;;;1053300;28;19904;-46
2021/03/28 02:43:49;;;;;;;6.85;2.63;;;;;;;;;;1049435;28;20039;-47
2021/03/28 02:44:38;;;;;;;7.88;2.78;;;;;;;;;;1049775;28;20016;-46
2021/03/28 02:45:17;;;;;;;6.05;2.65;;;;;;;;;;1049313;28;20024;-48
2021/03/28 02:45:48;;;;;;;9.45;3.05;;;;;;;;;;1049094;28;20041;-47
2021/03/28 02:46:21;;;;;;;8.30;2.73;;;;;;;;;;1049290;28;20386;-46
2021/03/28 02:47:04;;;;;;;7.10;2.60;;;;;;;;;;1049411;28;20056;-48
2021/03/28 02:47:57;;;;;;;8.95;2.75;;;;;;;;;;1049297;28;20194;-48
2021/03/28 02:48:28;;;;;;;10.38;2.80;;;;;;;;;;1049160;28;20415;-45
2021/03/28 02:49:21;;;;;;;8.00;2.90;;;;;;;;;;1045101;28;20101;-46
2021/03/28 02:49:54;;;;;;;6.00;2.70;;;;;;;;;;1044482;28;20486;-51
2021/03/28 02:50:33;;;;;;;8.38;2.70;;;;;;;;;;1048446;28;20016;-48
2021/03/28 02:51:21;;;;;;;9.98;2.90;;;;;;;;;;1049034;28;20284;-50
2021/03/28 02:51:54;;;;;;;7.20;2.50;;;;;;;;;;1048839;28;20020;-49
2021/03/28 02:52:25;;;;;;;11.45;2.60;;;;;;;;;;1049136;28;20422;-48
2021/03/28 02:53:04;;;;;;;6.77;3.00;;;;;;;;;;1049241;28;20012;-48
2021/03/28 02:53:34;;;;;;;8.77;2.72;;;;;;;;;;1049409;28;20016;-49
2021/03/28 02:54:20;;;;;;;7.77;2.33;;;;;;;;;;1049448;28;20057;-48
2021/03/28 02:54:57;;;;;;;7.88;3.00;;;;;;;;;;1049156;28;20091;-50
2021/03/28 02:55:56;;;;;;;5.75;3.08;;;;;;;;;;1049385;28;20509;-50
2021/03/28 02:56:36;;;;;;;7.45;2.95;;;;;;;;;;1049031;28;20070;-48
2021/03/28 02:57:24;;;;;;;7.72;2.75;;;;;;;;;;1044571;28;20048;-48
2021/03/28 02:58:00;;;;;;;6.57;2.60;;;;;;;;;;1044821;28;20017;-50
2021/03/28 02:58:33;;;;;;;7.88;2.60;;;;;;;;;;1048837;28;20095;-46
2021/03/28 02:59:22;;;;;;;11.38;2.95;;;;;;;;;;1048504;28;20206;-51
2021/03/28 03:00:11;;;;;;;9.43;2.78;;;;;;;;;;1048947;28;20161;-50
2021/03/28 03:01:01;;;;;;;6.13;2.72;;;;;;;;;;1049036;28;20012;-51
2021/03/28 03:01:49;;;;;;;7.20;2.65;;;;;;;;;;1048910;28;20044;-49
2021/03/28 03:02:38;;;;;;;6.40;2.78;;;;;;;;;;1048823;28;20373;-49
2021/03/28 03:03:27;;;;;;;8.45;3.03;;;;;;;;;;1049010;28;20365;-49
2021/03/28 03:04:00;;;;;;;8.75;3.03;;;;;;;;;;1049019;28;20020;-47
2021/03/28 03:04:45;;;;;;;7.22;2.60;;;;;;;;;;1049238;28;20052;-48
2021/03/28 03:05:28;;;;;;;7.35;2.97;;;;;;;;;;1049424;28;20013;-46
2021/03/28 03:06:05;;;;;;;7.78;2.83;;;;;;;;;;1048962;28;20075;-51
2021/03/28 03:06:59;;;;;;;5.90;2.75;;;;;;;;;;1049011;28;20013;-47
2021/03/28 03:07:38;;;;;;;8.18;2.95;;;;;;;;;;1052925;28;20008;-51
2021/03/28 03:08:10;;;;;;;6.22;2.55;;;;;;;;;;1052491;28;20085;-49
2021/03/28 03:08:44;;;;;;;6.07;2.65;;;;;;;;;;1044807;28;20020;-47
2021/03/28 03:09:32;;;;;;;5.85;2.67;;;;;;;;;;1040687;28;20124;-50
2021/03/28 03:10:08;;;;;;;6.93;3.45;;;;;;;;;;1043963;28;20357;-50
2021/03/28 03:10:59;;;;;;;9.18;3.00;;;;;;;;;;1044736;28;20071;-51
2021/03/28 03:11:29;;;;;;;;;;;;;;;;;;1049159;28;20024;-49
2021/03/28 03:12:17;;;;;;;8.17;2.77;;;;;;;;;;1048851;28;19942;-45
2021/03/28 03:12:51;;;;;;;7.43;2.88;;;;;;;;;;1049005;28;20013;-47
2021/03/28 03:13:21;;;;;;;5.50;2.40;;;;;;;;;;1049041;28;20465;-48
2021/03/28 03:14:03;;;;;;;6.70;3.13;;;;;;;;;;1049207;28;20021;-47
2021/03/28 03:14:53;;;;;;;7.68;2.90;;;;;;;;;;1049115;28;20012;-49
2021/03/28 03:15:24;;;;;;;;;;;;;;;;;;1049744;28;20016;-46
2021/03/28 03:16:06;;;;;;;10.10;3.13;;;;;;;;;;1049152;28;19954;-47
2021/03/28 03:16:55;;;;;;;8.00;2.72;;;;;;;;;;1044681;28;20005;-50
2021/03/28 03:17:28;;;;;;;9.68;3.10;;;;;;;;;;1044872;28;20428;-46
2021/03/28 03:18:16;;;;;;;7.30;2.92;;;;;;;;;;1044793;28;20381;-45
2021/03/28 03:19:01;;;;;;;8.90;3.03;;;;;;;;;;1049364;28;20090;-46
2021/03/28 03:19:50;;;;;;;6.43;2.60;;;;;;;;;;1048949;28;20014;-47
2021/03/28 03:20:38;;;;;;;8.70;2.88;;;;;;;;;;1048839;28;20016;-46
2021/03/28 03:21:08;;;;;;;8.50;2.72;;;;;;;;;;1048807;28;20013;-46
2021/03/28 03:21:48;;;;;;;6.13;2.20;;;;;;;;;;1049220;28;20017;-46
2021/03/28 03:22:37;;;;;;;9.13;2.95;;;;;;;;;;1049031;28;20150;-48
2021/03/28 03:23:33;;;;;;;7.90;3.15;;;;;;;;;;1048857;28;20013;-48
2021/03/28 03:24:13;;;;;;;8.05;2.97;;;;;;;;;;1053142;28;20057;-46
2021/03/28 03:24:49;;;;;;;5.80;2.70;;;;;;;;;;1051139;28;20091;-48
2021/03/28 03:25:22;;;;;;;6.75;3.08;;;;;;;;;;1049287;28;20091;-47
2021/03/28 03:26:07;;;;;;;8.25;3.15;;;;;;;;;;1049081;28;20107;-48
2021/03/28 03:27:16;;;;;;;5.63;2.97;;;;;;;;;;1049266;28;20009;-46
2021/03/28 03:27:49;;;;;;;6.60;2.90;;;;;;;;;;1048595;28;20423;-50
2021/03/28 03:28:31;;;;;;;8.20;3.25;;;;;;;;;;1048601;28;20012;-47
2021/03/28 03:29:21;;;;;;;5.80;2.78;;;;;;;;;;1044561;28;20047;-50
2021/03/28 03:29:52;;;;;;;7.47;2.78;;;;;;;;;;1044614;28;20023;-49
2021/03/28 03:30:51;;;;;;;7.40;3.10;;;;;;;;;;1044877;28;20160;-47
2021/03/28 03:31:37;;;;;;;6.65;2.70;;;;;;;;;;1040420;28;20014;-48
2021/03/28 03:32:09;;;;;;;6.72;2.50;;;;;;;;;;1040453;28;20022;-51
2021/03/28 03:32:43;;;;;;;9.30;2.53;;;;;;;;;;1040572;28;20418;-47
2021/03/28 03:33:26;;;;;;;7.15;2.60;;;;;;;;;;1040435;28;20033;-47
2021/03/28 03:34:15;;;;;;;6.68;2.88;;;;;;;;;;1036576;28;20029;-51
2021/03/28 03:34:51;;;;;;;9.32;2.90;;;;;;;;;;1032054;28;20015;-49
2021/03/28 03:35:27;;;;;;;7.40;2.58;;;;;;;;;;1032417;28;20049;-46
2021/03/28 03:36:17;;;;;;;7.25;2.75;;;;;;;;;;1036136;28;20026;-48
2021/03/28 03:36:47;;;;;;;;;;;;;;;;;;1024530;29;20054;-46
2021/03/28 03:37:24;;;;;;;9.40;2.90;;;;;;;;;;1024342;29;19898;-46
2021/03/28 03:37:54;;;;;;;6.05;2.85;;;;;;;;;;1033508;28;20029;-48
2021/03/28 03:38:31;;;;;;;9.67;3.30;;;;;;;;;;1036405;28;20367;-47
2021/03/28 03:39:11;;;;;;;8.25;3.13;;;;;;;;;;1032206;28;20022;-47
2021/03/28 03:39:48;;;;;;;7.00;2.60;;;;;;;;;;1034210;28;20016;-47
2021/03/28 03:40:47;;;;;;;6.60;2.80;;;;;;;;;;1036348;28;20614;-48
2021/03/28 03:41:26;;;;;;;7.47;2.58;;;;;;;;;;1016323;29;20099;-47
2021/03/28 03:42:15;;;;;;;8.48;2.80;;;;;;;;;;1013479;29;20072;-46
2021/03/28 03:43:03;;;;;;;7.75;2.92;;;;;;;;;;1012457;29;20025;-48
2021/03/28 03:43:39;;;;;;;6.35;2.83;;;;;;;;;;1028670;28;20437;-50
2021/03/28 03:44:15;;;;;;;8.88;2.90;;;;;;;;;;1028162;28;20023;-48
2021/03/28 03:44:51;;;;;;;7.55;2.70;;;;;;;;;;1031883;28;20007;-46
2021/03/28 03:45:24;;;;;;;9.73;3.05;;;;;;;;;;1030400;28;20042;-49
2021/03/28 03:46:02;;;;;;;6.97;2.90;;;;;;;;;;1033838;28;20015;-47
2021/03/28 03:46:39;;;;;;;8.82;3.08;;;;;;;;;;1036210;28;20109;-50
2021/03/28 03:47:18;;;;;;;7.57;2.63;;;;;;;;;;1034250;28;20022;-50
2021/03/28 03:47:54;;;;;;;8.77;2.83;;;;;;;;;;1036164;28;20032;-50
2021/03/28 03:48:24;;;;;;;6.47;2.78;;;;;;;;;;1036220;28;20093;-50
2021/03/28 03:48:54;;;;;;;8.97;2.97;;;;;;;;;;1038426;28;20483;-46
2021/03/28 03:49:27;;;;;;;7.40;2.77;;;;;;;;;;1036215;28;20033;-51
2021/03/28 03:50:08;;;;;;;8.35;2.92;;;;;;;;;;1036203;28;20463;-49
2021/03/28 03:50:57;;;;;;;7.13;2.70;;;;;;;;;;1032275;28;20139;-49
2021/03/28 03:51:46;;;;;;;7.10;2.85;;;;;;;;;;1036488;28;20014;-48
2021/03/28 03:52:18;;;;;;;6.65;2.88;;;;;;;;;;1037070;28;20064;-49
2021/03/28 03:52:56;;;;;;;5.88;2.85;;;;;;;;;;1032430;28;20379;-49
2021/03/28 03:53:29;;;;;;;7.50;3.08;;;;;;;;;;1032035;28;20022;-50
2021/03/28 03:54:03;;;;;;;8.68;3.08;;;;;;;;;;1032145;28;20030;-47
2021/03/28 03:54:54;;;;;;;8.82;3.03;;;;;;;;;;1036172;28;20025;-50
2021/03/28 03:55:24;;;;;;;;;;;;;;;;;;1040036;28;20022;-49